Time;durP1;ratioP1;P1;durP2;ratioP2;P2;SDS_P1;SDS_P2;PMS_P1;PMS_P2;Temp;Humidity;BMP_temperature;BMP_pressure;BME280_temperature;BME280_humidity;BME280_pressure;Samples;Min_cycle;Max_cycle;Signal;HPM_P1;HPM_P2
2022/07/28 00:02:16;;;;;;;;;1.50;1.50;;;;;;;;5041834;28;8827;-81
2022/07/28 00:04:43;;;;;;;;;2.00;2.00;;;;;;;;5043778;28;8915;-78
2022/07/28 00:07:12;;;;;;;;;1.25;1.25;;;;;;;;5040468;28;8887;-78
2022/07/28 00:09:39;;;;;;;;;1.00;1.00;;;;;;;;5039455;28;8889;-80
2022/07/28 00:12:07;;;;;;;;;1.25;1.25;;;;;;;;5040798;28;9288;-77
2022/07/28 00:14:35;;;;;;;;;2.00;2.00;;;;;;;;5038057;28;8879;-77
2022/07/28 00:17:03;;;;;;;;;1.00;1.00;;;;;;;;5034225;28;8892;-77
2022/07/28 00:19:30;;;;;;;;;1.00;1.00;;;;;;;;5040350;28;8847;-76
2022/07/28 00:21:57;;;;;;;;;1.00;1.00;;;;;;;;5040712;28;8927;-80
2022/07/28 00:24:26;;;;;;;;;1.00;1.00;;;;;;;;5042121;28;8872;-81
2022/07/28 00:26:53;;;;;;;;;2.25;2.25;;;;;;;;5038855;28;8886;-78
2022/07/28 00:29:21;;;;;;;;;1.00;1.00;;;;;;;;5042141;28;8870;-79
2022/07/28 00:31:48;;;;;;;;;1.75;1.75;;;;;;;;5036922;28;8811;-79
2022/07/28 00:34:15;;;;;;;;;2.25;2.25;;;;;;;;5041038;28;8878;-79
2022/07/28 00:36:42;;;;;;;;;2.00;2.00;;;;;;;;5035989;28;8865;-79
2022/07/28 00:39:10;;;;;;;;;2.00;2.00;;;;;;;;5041280;28;8859;-77
2022/07/28 00:41:39;;;;;;;;;1.25;1.25;;;;;;;;5036791;28;8865;-85
2022/07/28 00:44:07;;;;;;;;;1.00;1.00;;;;;;;;5040694;28;8980;-76
2022/07/28 00:46:35;;;;;;;;;2.00;2.00;;;;;;;;5037436;28;8895;-77
2022/07/28 00:49:03;;;;;;;;;1.00;1.00;;;;;;;;5038122;28;8914;-79
2022/07/28 00:51:30;;;;;;;;;2.25;2.00;;;;;;;;5042510;28;8878;-84
2022/07/28 00:53:58;;;;;;;;;1.50;1.50;;;;;;;;5045306;28;8845;-86
2022/07/28 00:56:25;;;;;;;;;2.00;2.00;;;;;;;;5041819;28;8877;-85
2022/07/28 00:58:54;;;;;;;;;1.00;1.00;;;;;;;;5034853;28;8893;-79
2022/07/28 01:01:22;;;;;;;;;2.00;2.00;;;;;;;;5041595;28;8823;-78
2022/07/28 01:03:54;;;;;;;;;1.75;1.75;;;;;;;;5042324;28;8859;-86
2022/07/28 01:06:39;;;;;;;;;2.00;2.00;;;;;;;;5037831;28;8881;-76
2022/07/28 01:09:14;;;;;;;;;1.00;1.00;;;;;;;;5035327;28;8847;-77
2022/07/28 01:11:47;;;;;;;;;0.00;0.00;;;;;;;;5034808;28;9673;-83
2022/07/28 01:14:24;;;;;;;;;1.00;1.00;;;;;;;;5041120;28;8871;-80
2022/07/28 01:17:11;;;;;;;;;1.75;1.75;;;;;;;;5035656;28;8887;-84
2022/07/28 01:19:44;;;;;;;;;2.00;2.00;;;;;;;;5036206;28;8883;-77
2022/07/28 01:22:16;;;;;;;;;1.00;1.00;;;;;;;;5037150;28;8881;-79
2022/07/28 01:24:51;;;;;;;;;2.25;2.25;;;;;;;;5052944;28;8899;-78
2022/07/28 01:27:36;;;;;;;;;2.00;2.00;;;;;;;;5033991;28;8863;-77
2022/07/28 01:30:08;;;;;;;;;2.50;1.00;;;;;;;;5037174;28;8858;-78
2022/07/28 01:32:44;;;;;;;;;1.00;1.00;;;;;;;;5044580;28;8948;-79
2022/07/28 01:35:16;;;;;;;;;1.50;1.50;;;;;;;;5038432;28;9076;-81
2022/07/28 01:37:46;;;;;;;;;1.00;1.00;;;;;;;;5037062;28;8882;-80
2022/07/28 01:40:16;;;;;;;;;1.75;1.75;;;;;;;;5034391;28;8881;-79
2022/07/28 01:42:47;;;;;;;;;3.00;1.00;;;;;;;;5038335;28;8850;-80
2022/07/28 01:45:16;;;;;;;;;1.00;1.00;;;;;;;;5035163;28;8867;-78
2022/07/28 01:47:47;;;;;;;;;0.25;0.00;;;;;;;;5042919;28;8843;-77
2022/07/28 01:50:16;;;;;;;;;2.00;2.00;;;;;;;;5033768;28;8866;-79
2022/07/28 01:52:46;;;;;;;;;2.00;2.00;;;;;;;;5034048;28;8867;-80
2022/07/28 01:55:14;;;;;;;;;2.00;2.00;;;;;;;;5043492;28;8970;-81
2022/07/28 01:57:42;;;;;;;;;1.00;1.00;;;;;;;;5036959;28;8900;-81
2022/07/28 02:00:11;;;;;;;;;1.00;1.00;;;;;;;;5040752;28;8873;-80
2022/07/28 02:02:39;;;;;;;;;1.25;1.25;;;;;;;;5034647;28;9499;-80
2022/07/28 02:05:10;;;;;;;;;1.75;1.75;;;;;;;;5039158;28;8863;-79
2022/07/28 02:07:38;;;;;;;;;2.25;2.25;;;;;;;;5028896;28;8859;-78
2022/07/28 02:10:07;;;;;;;;;1.25;1.25;;;;;;;;5039276;28;8855;-77
2022/07/28 02:12:36;;;;;;;;;1.00;1.00;;;;;;;;5039816;28;8871;-76
2022/07/28 02:15:04;;;;;;;;;1.25;1.25;;;;;;;;5041525;28;8875;-81
2022/07/28 02:17:33;;;;;;;;;0.25;0.25;;;;;;;;5039061;28;8868;-80
2022/07/28 02:20:01;;;;;;;;;1.00;1.00;;;;;;;;5038499;28;8932;-80
2022/07/28 02:22:31;;;;;;;;;1.75;1.75;;;;;;;;5032606;28;8861;-81
2022/07/28 02:24:59;;;;;;;;;3.00;1.00;;;;;;;;5039456;28;8981;-79
2022/07/28 02:27:34;;;;;;;;;2.50;2.50;;;;;;;;5034633;28;8891;-79
2022/07/28 02:30:06;;;;;;;;;2.00;2.00;;;;;;;;5036349;28;8889;-83
2022/07/28 02:32:39;;;;;;;;;1.00;1.00;;;;;;;;5039902;28;8832;-77
2022/07/28 02:35:10;;;;;;;;;1.25;1.25;;;;;;;;5020450;28;8895;-83
2022/07/28 02:37:40;;;;;;;;;1.00;1.00;;;;;;;;5036810;28;8864;-77
2022/07/28 02:40:12;;;;;;;;;2.00;2.00;;;;;;;;5039820;28;8903;-82
2022/07/28 02:42:41;;;;;;;;;3.75;2.00;;;;;;;;5038181;28;8887;-79
2022/07/28 02:45:11;;;;;;;;;1.75;1.75;;;;;;;;5036820;28;8905;-81
2022/07/28 02:47:44;;;;;;;;;1.00;1.00;;;;;;;;5037989;28;8844;-76
2022/07/28 02:50:11;;;;;;;;;1.75;1.75;;;;;;;;5038195;28;8851;-77
2022/07/28 02:52:43;;;;;;;;;2.25;2.00;;;;;;;;5037622;28;8852;-79
2022/07/28 02:55:11;;;;;;;;;2.50;2.50;;;;;;;;5039389;28;8908;-84
2022/07/28 02:57:39;;;;;;;;;1.00;1.00;;;;;;;;5042223;28;9587;-82
2022/07/28 03:00:08;;;;;;;;;2.00;2.00;;;;;;;;5046196;28;8977;-79
2022/07/28 03:02:36;;;;;;;;;1.75;1.75;;;;;;;;5040807;28;8879;-82
2022/07/28 03:05:04;;;;;;;;;1.00;1.00;;;;;;;;5039987;28;8844;-80
2022/07/28 03:07:34;;;;;;;;;1.00;1.00;;;;;;;;5036270;28;8860;-79
2022/07/28 03:10:05;;;;;;;;;2.75;1.00;;;;;;;;5041691;28;8856;-76
2022/07/28 03:12:32;;;;;;;;;1.50;1.50;;;;;;;;5035383;28;8988;-77
2022/07/28 03:14:59;;;;;;;;;1.00;1.00;;;;;;;;5039277;28;8900;-81
2022/07/28 03:17:26;;;;;;;;;2.00;2.00;;;;;;;;5037400;28;8868;-77
2022/07/28 03:19:53;;;;;;;;;2.00;1.25;;;;;;;;5040780;28;8864;-79
2022/07/28 03:22:21;;;;;;;;;1.50;1.50;;;;;;;;5041202;28;8864;-78
2022/07/28 03:24:52;;;;;;;;;1.00;1.00;;;;;;;;5041618;28;9688;-82
2022/07/28 03:27:29;;;;;;;;;1.00;1.00;;;;;;;;5038141;28;8884;-80
2022/07/28 03:30:01;;;;;;;;;2.00;2.00;;;;;;;;5039087;28;8893;-80
2022/07/28 03:32:29;;;;;;;;;0.75;0.75;;;;;;;;5043964;28;8833;-78
2022/07/28 03:34:56;;;;;;;;;1.75;1.75;;;;;;;;5039439;28;8898;-76
2022/07/28 03:37:27;;;;;;;;;2.00;2.00;;;;;;;;5038822;28;8975;-78
2022/07/28 03:39:58;;;;;;;;;2.25;2.25;;;;;;;;5036978;28;8918;-80
2022/07/28 03:42:27;;;;;;;;;1.00;1.00;;;;;;;;5039096;28;8871;-78
2022/07/28 03:44:54;;;;;;;;;1.67;1.67;;;;;;;;5036087;28;8862;-80
2022/07/28 03:47:22;;;;;;;;;1.67;1.67;;;;;;;;5035990;28;9048;-79
2022/07/28 03:49:50;;;;;;;;;2.00;2.00;;;;;;;;5039272;28;8981;-80
2022/07/28 03:52:18;;;;;;;;;1.00;1.00;;;;;;;;5042899;28;9172;-79
2022/07/28 03:54:45;;;;;;;;;1.25;1.25;;;;;;;;5037495;28;9083;-79
2022/07/28 03:57:12;;;;;;;;;2.00;2.00;;;;;;;;5036145;28;8856;-80
2022/07/28 03:59:41;;;;;;;;;1.25;1.25;;;;;;;;5039236;28;9873;-83
2022/07/28 04:02:08;;;;;;;;;1.25;1.25;;;;;;;;5034609;28;8841;-81
2022/07/28 04:04:36;;;;;;;;;3.00;1.75;;;;;;;;5044001;28;8907;-81
2022/07/28 04:07:03;;;;;;;;;1.75;1.75;;;;;;;;5038493;28;8877;-78
2022/07/28 04:09:30;;;;;;;;;2.50;2.50;;;;;;;;5041428;28;9463;-78
2022/07/28 04:11:57;;;;;;;;;2.00;2.00;;;;;;;;5039856;28;8860;-78
2022/07/28 04:14:25;;;;;;;;;1.00;1.00;;;;;;;;5038275;28;9666;-79
2022/07/28 04:16:53;;;;;;;;;2.00;2.00;;;;;;;;5039244;28;8876;-81
2022/07/28 04:19:21;;;;;;;;;1.00;1.00;;;;;;;;5042530;28;8927;-81
2022/07/28 04:21:48;;;;;;;;;2.00;2.00;;;;;;;;5039606;28;8845;-80
2022/07/28 04:24:16;;;;;;;;;3.50;1.75;;;;;;;;5043804;28;8978;-77
2022/07/28 04:26:44;;;;;;;;;2.00;1.75;;;;;;;;5021495;28;8868;-78
2022/07/28 04:29:11;;;;;;;;;1.00;1.00;;;;;;;;5041580;28;8886;-79
2022/07/28 04:31:38;;;;;;;;;2.50;2.50;;;;;;;;5040647;28;8820;-76
2022/07/28 04:34:08;;;;;;;;;2.25;1.75;;;;;;;;5040941;28;9427;-75
2022/07/28 04:36:40;;;;;;;;;2.00;2.00;;;;;;;;5018203;28;8852;-76
2022/07/28 04:39:09;;;;;;;;;1.00;1.00;;;;;;;;5036925;28;8960;-80
2022/07/28 04:41:37;;;;;;;;;3.00;3.00;;;;;;;;5047792;28;8903;-78
2022/07/28 04:44:05;;;;;;;;;2.00;2.00;;;;;;;;5022007;28;8936;-78
2022/07/28 04:46:33;;;;;;;;;3.25;2.00;;;;;;;;5018772;28;8881;-77
2022/07/28 04:49:00;;;;;;;;;2.50;1.25;;;;;;;;5035659;28;8844;-78
2022/07/28 04:51:29;;;;;;;;;2.75;2.00;;;;;;;;5035722;28;8858;-80
2022/07/28 04:53:56;;;;;;;;;2.00;2.00;;;;;;;;5044382;28;9002;-84
2022/07/28 04:56:24;;;;;;;;;1.00;1.00;;;;;;;;5041181;28;8852;-82
2022/07/28 04:58:51;;;;;;;;;1.00;1.00;;;;;;;;5046336;28;8869;-86
2022/07/28 05:01:20;;;;;;;;;1.00;1.00;;;;;;;;5040030;28;8809;-81
2022/07/28 05:03:47;;;;;;;;;2.00;2.00;;;;;;;;5042820;28;8868;-79
2022/07/28 05:06:16;;;;;;;;;1.25;1.25;;;;;;;;5041206;28;8878;-81
2022/07/28 05:08:45;;;;;;;;;2.00;2.00;;;;;;;;5041333;28;9056;-78
2022/07/28 05:11:13;;;;;;;;;2.00;2.00;;;;;;;;5039818;28;8862;-78
2022/07/28 05:13:41;;;;;;;;;3.25;2.00;;;;;;;;5042782;28;8898;-79
2022/07/28 05:16:08;;;;;;;;;1.50;1.50;;;;;;;;5043888;28;8844;-82
2022/07/28 05:18:36;;;;;;;;;1.00;1.00;;;;;;;;5017915;28;8921;-80
2022/07/28 05:21:03;;;;;;;;;2.00;2.00;;;;;;;;5045085;28;8884;-81
2022/07/28 05:23:31;;;;;;;;;1.00;1.00;;;;;;;;5037065;28;8888;-80
2022/07/28 05:26:00;;;;;;;;;1.75;1.75;;;;;;;;5042228;28;9652;-84
2022/07/28 05:28:27;;;;;;;;;2.00;2.00;;;;;;;;5039019;28;8876;-81
2022/07/28 05:30:55;;;;;;;;;1.00;1.00;;;;;;;;5023524;28;8804;-80
2022/07/28 05:33:22;;;;;;;;;2.00;2.00;;;;;;;;5037691;28;8894;-80
2022/07/28 05:35:53;;;;;;;;;2.00;2.00;;;;;;;;5040160;28;8983;-80
2022/07/28 05:38:21;;;;;;;;;1.50;1.50;;;;;;;;5039589;28;8860;-80
2022/07/28 05:40:48;;;;;;;;;3.00;2.25;;;;;;;;5022331;28;8898;-81
2022/07/28 05:43:17;;;;;;;;;0.75;0.75;;;;;;;;5038007;28;9015;-79
2022/07/28 05:45:45;;;;;;;;;1.00;1.00;;;;;;;;5037822;28;8910;-81
2022/07/28 05:48:12;;;;;;;;;2.00;2.00;;;;;;;;5034115;28;8884;-79
2022/07/28 05:50:40;;;;;;;;;2.00;2.00;;;;;;;;5046050;28;8878;-79
2022/07/28 05:53:07;;;;;;;;;2.00;2.00;;;;;;;;5020037;28;8951;-80
2022/07/28 05:55:34;;;;;;;;;1.75;1.75;;;;;;;;5041621;28;8918;-80
2022/07/28 05:58:02;;;;;;;;;1.25;1.25;;;;;;;;5034989;28;8866;-81
2022/07/28 06:00:32;;;;;;;;;3.00;1.50;;;;;;;;5021269;28;8822;-79
2022/07/28 06:03:01;;;;;;;;;1.25;1.25;;;;;;;;5034952;28;8877;-81
2022/07/28 06:05:29;;;;;;;;;2.00;2.00;;;;;;;;5039669;28;8879;-80
2022/07/28 06:07:57;;;;;;;;;3.25;2.00;;;;;;;;5041375;28;8969;-78
2022/07/28 06:10:27;;;;;;;;;2.00;2.00;;;;;;;;5040200;28;8866;-84
2022/07/28 06:13:15;;;;;;;;;2.00;2.00;;;;;;;;5039451;28;8850;-74
2022/07/28 06:15:45;;;;;;;;;3.00;3.00;;;;;;;;5038043;28;9002;-75
2022/07/28 06:18:13;;;;;;;;;3.50;3.50;;;;;;;;5039158;28;8859;-74
2022/07/28 06:20:40;;;;;;;;;1.25;1.25;;;;;;;;5036792;28;9747;-74
2022/07/28 06:23:07;;;;;;;;;2.00;2.00;;;;;;;;5033482;28;8881;-75
2022/07/28 06:25:35;;;;;;;;;2.00;2.00;;;;;;;;5038273;28;8955;-74
2022/07/28 06:28:02;;;;;;;;;3.00;3.00;;;;;;;;5033151;28;8908;-73
2022/07/28 06:30:31;;;;;;;;;2.00;2.00;;;;;;;;5044526;28;8851;-75
2022/07/28 06:33:00;;;;;;;;;2.25;2.00;;;;;;;;5038078;28;8862;-74
2022/07/28 06:35:27;;;;;;;;;3.25;2.00;;;;;;;;5042860;28;8879;-74
2022/07/28 06:37:55;;;;;;;;;2.00;2.00;;;;;;;;5040906;28;8900;-75
2022/07/28 06:40:22;;;;;;;;;2.00;2.00;;;;;;;;5045460;28;8879;-79
2022/07/28 06:42:50;;;;;;;;;3.00;3.00;;;;;;;;5041967;28;8881;-75
2022/07/28 06:45:20;;;;;;;;;2.50;2.50;;;;;;;;5041626;28;8875;-75
2022/07/28 06:47:47;;;;;;;;;2.25;2.25;;;;;;;;5039099;28;8874;-75
2022/07/28 06:50:16;;;;;;;;;3.00;3.00;;;;;;;;5041239;28;9669;-76
2022/07/28 06:52:50;;;;;;;;;4.00;3.00;;;;;;;;5040932;28;8877;-77
2022/07/28 06:55:17;;;;;;;;;3.00;3.00;;;;;;;;5045397;28;8879;-74
2022/07/28 06:57:45;;;;;;;;;3.25;3.25;;;;;;;;5038276;28;8879;-75
2022/07/28 07:00:14;;;;;;;;;3.00;3.00;;;;;;;;5041145;28;8868;-80
2022/07/28 07:02:42;;;;;;;;;3.50;3.50;;;;;;;;5041713;28;8940;-76
2022/07/28 07:05:10;;;;;;;;;3.75;2.50;;;;;;;;5041231;28;8859;-74
2022/07/28 07:07:39;;;;;;;;;3.75;3.75;;;;;;;;5041200;28;8871;-76
2022/07/28 07:10:07;;;;;;;;;3.00;3.00;;;;;;;;5043542;28;8898;-76
2022/07/28 07:12:34;;;;;;;;;3.00;3.00;;;;;;;;5035974;28;9623;-76
2022/07/28 07:15:02;;;;;;;;;4.50;3.00;;;;;;;;5039777;28;9006;-75
2022/07/28 07:17:29;;;;;;;;;3.00;3.00;;;;;;;;5037376;28;9012;-74
2022/07/28 07:19:56;;;;;;;;;3.00;3.00;;;;;;;;5040800;28;8882;-74
2022/07/28 07:22:24;;;;;;;;;3.00;3.00;;;;;;;;5040716;28;8883;-74
2022/07/28 07:24:53;;;;;;;;;5.00;3.25;;;;;;;;5038838;28;8890;-75
2022/07/28 07:27:20;;;;;;;;;6.50;5.00;;;;;;;;5039843;28;8874;-74
2022/07/28 07:29:47;;;;;;;;;4.75;4.75;;;;;;;;5044482;28;8885;-73
2022/07/28 07:32:14;;;;;;;;;4.00;4.00;;;;;;;;5039355;28;8873;-75
2022/07/28 07:34:42;;;;;;;;;3.00;3.00;;;;;;;;5039260;28;8847;-74
2022/07/28 07:37:12;;;;;;;;;4.00;4.00;;;;;;;;5034940;28;9025;-77
2022/07/28 07:39:40;;;;;;;;;5.00;5.00;;;;;;;;5040831;28;8932;-74
2022/07/28 07:42:09;;;;;;;;;5.00;5.00;;;;;;;;5035421;28;8914;-75
2022/07/28 07:44:37;;;;;;;;;4.75;4.75;;;;;;;;5035959;28;8894;-75
2022/07/28 07:47:04;;;;;;;;;3.00;3.00;;;;;;;;5043365;28;8868;-77
2022/07/28 07:49:31;;;;;;;;;4.00;4.00;;;;;;;;5042002;28;8885;-74
2022/07/28 07:51:59;;;;;;;;;5.00;5.00;;;;;;;;5036724;28;8977;-74
2022/07/28 07:54:26;;;;;;;;;4.00;4.00;;;;;;;;5043143;28;8863;-75
2022/07/28 07:56:54;;;;;;;;;4.00;4.00;;;;;;;;5037642;28;8882;-75
2022/07/28 07:59:22;;;;;;;;;4.00;4.00;;;;;;;;5043692;28;8938;-80
2022/07/28 08:01:53;;;;;;;;;4.40;3.00;;;;;;;;5037469;28;8824;-82
2022/07/28 08:04:20;;;;;;;;;3.80;3.80;;;;;;;;5039062;28;8862;-78
2022/07/28 08:06:48;;;;;;;;;3.60;3.60;;;;;;;;5041071;28;8885;-77
2022/07/28 08:09:15;;;;;;;;;4.00;4.00;;;;;;;;5035255;28;8916;-76
2022/07/28 08:11:43;;;;;;;;;5.00;5.00;;;;;;;;5038953;28;8871;-79
2022/07/28 08:14:11;;;;;;;;;3.20;3.20;;;;;;;;5037524;28;8863;-77
2022/07/28 08:16:40;;;;;;;;;4.20;4.20;;;;;;;;5038244;28;8897;-77
2022/07/28 08:19:07;;;;;;;;;4.80;4.80;;;;;;;;5040470;28;8906;-77
2022/07/28 08:21:35;;;;;;;;;5.80;5.80;;;;;;;;5031720;28;8957;-78
2022/07/28 08:24:02;;;;;;;;;6.60;5.00;;;;;;;;5042945;28;9669;-77
2022/07/28 08:26:30;;;;;;;;;4.00;4.00;;;;;;;;5040515;28;8920;-75
2022/07/28 08:28:57;;;;;;;;;6.60;3.60;;;;;;;;5040081;28;8882;-76
2022/07/28 08:31:26;;;;;;;;;4.00;4.00;;;;;;;;5034887;28;9422;-82
2022/07/28 08:33:57;;;;;;;;;4.00;4.00;;;;;;;;5038867;28;8893;-75
2022/07/28 08:36:24;;;;;;;;;5.00;5.00;;;;;;;;5034868;28;8867;-75
2022/07/28 08:38:51;;;;;;;;;3.00;3.00;;;;;;;;5038475;28;8863;-77
2022/07/28 08:41:22;;;;;;;;;3.00;3.00;;;;;;;;5044393;28;8869;-74
2022/07/28 08:43:53;;;;;;;;;9.80;9.80;;;;;;;;5034221;28;9577;-75
2022/07/28 08:46:21;;;;;;;;;4.20;4.20;;;;;;;;5042237;28;8873;-74
2022/07/28 08:48:50;;;;;;;;;4.40;4.40;;;;;;;;5036935;28;9682;-74
2022/07/28 08:51:19;;;;;;;;;3.60;3.60;;;;;;;;5040237;28;8883;-74
2022/07/28 08:53:47;;;;;;;;;5.40;4.60;;;;;;;;5036251;28;8879;-74
2022/07/28 08:56:15;;;;;;;;;3.60;3.60;;;;;;;;5021185;28;8885;-74
2022/07/28 08:58:43;;;;;;;;;4.00;4.00;;;;;;;;5041850;28;8889;-77
2022/07/28 09:01:12;;;;;;;;;3.20;3.20;;;;;;;;5036315;28;8854;-74
2022/07/28 09:03:41;;;;;;;;;3.40;3.40;;;;;;;;5037503;28;8862;-74
2022/07/28 09:06:10;;;;;;;;;4.60;3.60;;;;;;;;5038869;28;8874;-73
2022/07/28 09:08:39;;;;;;;;;3.00;3.00;;;;;;;;5038460;28;8851;-74
2022/07/28 09:11:07;;;;;;;;;3.20;3.20;;;;;;;;5037664;28;8909;-72
2022/07/28 09:13:35;;;;;;;;;4.80;4.80;;;;;;;;5041595;28;9641;-74
2022/07/28 09:16:02;;;;;;;;;4.20;4.20;;;;;;;;5037976;28;8879;-74
2022/07/28 09:18:32;;;;;;;;;3.00;3.00;;;;;;;;5041113;28;8871;-74
2022/07/28 09:20:59;;;;;;;;;3.20;3.20;;;;;;;;5041947;28;9028;-74
2022/07/28 09:23:44;;;;;;;;;4.00;4.00;;;;;;;;5038609;28;9678;-73
2022/07/28 09:26:12;;;;;;;;;3.00;3.00;;;;;;;;5041164;28;8871;-73
2022/07/28 09:28:50;;;;;;;;;6.00;5.60;;;;;;;;5041648;28;8867;-73
2022/07/28 09:31:18;;;;;;;;;6.20;4.80;;;;;;;;5040367;28;8807;-73
2022/07/28 09:33:57;;;;;;;;;5.60;4.00;;;;;;;;5038149;28;8889;-74
2022/07/28 09:36:24;;;;;;;;;4.60;4.60;;;;;;;;5040951;28;9604;-74
2022/07/28 09:38:53;;;;;;;;;3.80;3.80;;;;;;;;5040767;28;8905;-74
2022/07/28 09:41:21;;;;;;;;;3.80;3.80;;;;;;;;5042544;28;8851;-75
2022/07/28 09:43:50;;;;;;;;;3.80;3.80;;;;;;;;5041557;28;8874;-74
2022/07/28 09:46:19;;;;;;;;;4.60;4.60;;;;;;;;5035068;28;8859;-74
2022/07/28 09:48:53;;;;;;;;;5.00;5.00;;;;;;;;5040804;28;8871;-74
2022/07/28 09:51:22;;;;;;;;;2.20;1.60;;;;;;;;5039386;28;8898;-75
2022/07/28 09:53:49;;;;;;;;;3.80;3.80;;;;;;;;5040049;28;8869;-75
2022/07/28 09:56:18;;;;;;;;;3.00;3.00;;;;;;;;5041747;28;8879;-74
2022/07/28 09:58:56;;;;;;;;;3.00;3.00;;;;;;;;5039954;28;8878;-74
2022/07/28 10:01:24;;;;;;;;;2.60;2.60;;;;;;;;5038275;28;8831;-75
2022/07/28 10:03:54;;;;;;;;;2.20;2.20;;;;;;;;5041110;28;8860;-77
2022/07/28 10:06:27;;;;;;;;;2.00;2.00;;;;;;;;5039611;28;8875;-73
2022/07/28 10:08:56;;;;;;;;;2.80;2.80;;;;;;;;5037454;28;8900;-76
2022/07/28 10:11:26;;;;;;;;;2.00;2.00;;;;;;;;5039709;28;8897;-74
2022/07/28 10:14:01;;;;;;;;;2.60;2.60;;;;;;;;5039034;28;8874;-76
2022/07/28 10:16:30;;;;;;;;;2.00;2.00;;;;;;;;5036960;28;9013;-78
2022/07/28 10:18:59;;;;;;;;;2.80;2.80;;;;;;;;5041325;28;8916;-77
2022/07/28 10:21:28;;;;;;;;;2.00;2.00;;;;;;;;5040899;28;9019;-76
2022/07/28 10:23:58;;;;;;;;;3.00;3.00;;;;;;;;5038835;28;8988;-75
2022/07/28 10:26:32;;;;;;;;;3.80;3.00;;;;;;;;5041647;28;8861;-77
2022/07/28 10:29:05;;;;;;;;;3.00;3.00;;;;;;;;5039632;28;9644;-76
2022/07/28 10:31:35;;;;;;;;;4.60;4.60;;;;;;;;5040002;28;8820;-77
2022/07/28 10:34:04;;;;;;;;;2.80;2.80;;;;;;;;5039273;28;8869;-77
2022/07/28 10:36:32;;;;;;;;;3.80;3.80;;;;;;;;5040284;28;8905;-75
2022/07/28 10:39:04;;;;;;;;;2.20;2.20;;;;;;;;5040924;28;8985;-77
2022/07/28 10:41:40;;;;;;;;;3.00;3.00;;;;;;;;5038140;28;9005;-78
2022/07/28 10:44:12;;;;;;;;;2.20;2.20;;;;;;;;5040249;28;8907;-78
2022/07/28 10:46:42;;;;;;;;;2.00;2.00;;;;;;;;5038446;28;8879;-77
2022/07/28 10:49:10;;;;;;;;;3.40;3.00;;;;;;;;5038778;28;8843;-79
2022/07/28 10:51:38;;;;;;;;;3.20;2.00;;;;;;;;5039241;28;8863;-74
2022/07/28 10:54:14;;;;;;;;;2.60;2.60;;;;;;;;5040778;28;9602;-75
2022/07/28 10:56:48;;;;;;;;;0.00;0.00;;;;;;;;5037326;28;8887;-75
2022/07/28 10:59:42;;;;;;;;;2.00;2.00;;;;;;;;5040118;28;8891;-75
2022/07/28 11:02:10;;;;;;;;;3.00;3.00;;;;;;;;5038497;28;8846;-74
2022/07/28 11:04:57;;;;;;;;;3.80;3.80;;;;;;;;5040108;28;9723;-74
2022/07/28 11:07:38;;;;;;;;;4.40;3.20;;;;;;;;5037195;28;8956;-76
2022/07/28 11:10:16;;;;;;;;;3.20;3.20;;;;;;;;5038184;28;8895;-77
2022/07/28 11:12:49;;;;;;;;;4.00;4.00;;;;;;;;5038938;28;8875;-76
2022/07/28 11:15:34;;;;;;;;;2.00;2.00;;;;;;;;5041603;28;8863;-79
2022/07/28 11:18:04;;;;;;;;;2.00;2.00;;;;;;;;5037347;28;8855;-75
2022/07/28 11:21:07;;;;;;;;;2.40;2.40;;;;;;;;5045605;28;8862;-77
2022/07/28 11:23:43;;;;;;;;;4.80;2.20;;;;;;;;5042482;28;8847;-75
2022/07/28 11:26:35;;;;;;;;;1.60;1.60;;;;;;;;5041430;28;8863;-75
2022/07/28 11:29:28;;;;;;;;;1.40;1.40;;;;;;;;5039072;28;8886;-82
2022/07/28 11:31:59;;;;;;;;;1.80;1.80;;;;;;;;5042155;28;8817;-74
2022/07/28 11:34:27;;;;;;;;;1.20;1.20;;;;;;;;5017759;28;9053;-74
2022/07/28 11:37:02;;;;;;;;;1.00;1.00;;;;;;;;5033983;28;8867;-73
2022/07/28 11:39:30;;;;;;;;;1.80;1.80;;;;;;;;5038102;28;8879;-74
2022/07/28 11:41:58;;;;;;;;;1.00;1.00;;;;;;;;5039581;28;8863;-75
2022/07/28 11:44:31;;;;;;;;;2.20;2.20;;;;;;;;5038076;28;8886;-74
2022/07/28 11:47:16;;;;;;;;;3.60;2.00;;;;;;;;5040459;28;8859;-75
2022/07/28 11:49:44;;;;;;;;;3.00;3.00;;;;;;;;5040971;28;9668;-74
2022/07/28 11:52:19;;;;;;;;;0.20;0.00;;;;;;;;5039794;28;8885;-75
2022/07/28 11:54:56;;;;;;;;;1.00;1.00;;;;;;;;5040751;28;8973;-74
2022/07/28 11:57:26;;;;;;;;;1.20;1.20;;;;;;;;5036099;28;9637;-74
2022/07/28 12:00:00;;;;;;;;;1.00;1.00;;;;;;;;5042667;28;8989;-74
2022/07/28 12:02:30;;;;;;;;;0.80;0.80;;;;;;;;5037556;28;8821;-76
2022/07/28 12:05:10;;;;;;;;;2.00;2.00;;;;;;;;5038827;28;8892;-76
2022/07/28 12:07:43;;;;;;;;;3.00;1.00;;;;;;;;5033429;28;8866;-76
2022/07/28 12:10:28;;;;;;;;;2.00;2.00;;;;;;;;5035248;28;8887;-76
2022/07/28 12:12:58;;;;;;;;;3.20;1.00;;;;;;;;5037067;28;8875;-76
2022/07/28 12:15:30;;;;;;;;;1.00;1.00;;;;;;;;5039834;28;9042;-76
2022/07/28 12:17:59;;;;;;;;;1.00;1.00;;;;;;;;5037185;28;8964;-76
2022/07/28 12:20:30;;;;;;;;;2.00;2.00;;;;;;;;5042498;28;8921;-76
2022/07/28 12:23:06;;;;;;;;;3.00;1.80;;;;;;;;5039952;28;8881;-75
2022/07/28 12:25:51;;;;;;;;;2.00;2.00;;;;;;;;5039004;28;8864;-75
2022/07/28 12:28:21;;;;;;;;;3.60;2.00;;;;;;;;5034806;28;9678;-76
2022/07/28 12:30:50;;;;;;;;;2.00;2.00;;;;;;;;5038617;28;8830;-76
2022/07/28 12:33:20;;;;;;;;;2.00;2.00;;;;;;;;5033924;28;8851;-76
2022/07/28 12:35:49;;;;;;;;;2.00;2.00;;;;;;;;5040497;28;8878;-75
2022/07/28 12:38:16;;;;;;;;;1.20;1.20;;;;;;;;5037973;28;8863;-76
2022/07/28 12:40:45;;;;;;;;;1.40;1.40;;;;;;;;5039953;28;8867;-75
2022/07/28 12:43:12;;;;;;;;;3.00;3.00;;;;;;;;5041226;28;8969;-75
2022/07/28 12:45:46;;;;;;;;;1.60;1.60;;;;;;;;5038594;28;8886;-75
2022/07/28 12:48:16;;;;;;;;;2.00;2.00;;;;;;;;5035897;28;8998;-75
2022/07/28 12:50:43;;;;;;;;;2.00;2.00;;;;;;;;5040637;28;8870;-75
2022/07/28 12:53:12;;;;;;;;;1.00;1.00;;;;;;;;5037606;28;8875;-75
2022/07/28 12:55:42;;;;;;;;;1.00;1.00;;;;;;;;5037128;28;8863;-75
2022/07/28 12:58:22;;;;;;;;;1.20;1.20;;;;;;;;5029378;28;8890;-75
2022/07/28 13:00:50;;;;;;;;;2.00;2.00;;;;;;;;5043043;28;8811;-76
2022/07/28 13:03:24;;;;;;;;;1.00;1.00;;;;;;;;5039674;28;8867;-76
2022/07/28 13:06:04;;;;;;;;;0.60;0.60;;;;;;;;5042903;28;8887;-75
2022/07/28 13:08:40;;;;;;;;;1.20;1.20;;;;;;;;5039844;28;8869;-75
2022/07/28 13:11:08;;;;;;;;;1.80;1.80;;;;;;;;5038518;28;8895;-75
2022/07/28 13:13:49;;;;;;;;;1.00;1.00;;;;;;;;5039065;28;9328;-75
2022/07/28 13:16:18;;;;;;;;;2.00;0.80;;;;;;;;5036668;28;8878;-75
2022/07/28 13:18:52;;;;;;;;;1.00;1.00;;;;;;;;5035090;28;8905;-75
2022/07/28 13:21:37;;;;;;;;;2.80;2.80;;;;;;;;5037452;28;8863;-75
2022/07/28 13:24:05;;;;;;;;;1.00;1.00;;;;;;;;5037273;28;8875;-75
2022/07/28 13:26:32;;;;;;;;;2.00;2.00;;;;;;;;5035773;28;8855;-76
2022/07/28 13:29:01;;;;;;;;;2.00;2.00;;;;;;;;5036672;28;8855;-76
2022/07/28 13:31:30;;;;;;;;;2.00;2.00;;;;;;;;5036604;28;8822;-76
2022/07/28 13:33:59;;;;;;;;;2.00;2.00;;;;;;;;5038488;28;8879;-76
2022/07/28 13:36:26;;;;;;;;;1.00;1.00;;;;;;;;5037390;28;8871;-76
2022/07/28 13:38:53;;;;;;;;;1.00;1.00;;;;;;;;5037627;28;8854;-76
2022/07/28 13:41:21;;;;;;;;;1.00;1.00;;;;;;;;5032076;28;8869;-76
2022/07/28 13:43:49;;;;;;;;;2.00;2.00;;;;;;;;5035662;28;8854;-75
2022/07/28 13:46:16;;;;;;;;;1.00;1.00;;;;;;;;5038186;28;8887;-75
2022/07/28 13:48:43;;;;;;;;;1.60;1.00;;;;;;;;5035512;28;8978;-75
2022/07/28 13:51:12;;;;;;;;;0.00;0.00;;;;;;;;5037082;28;8873;-75
2022/07/28 13:53:40;;;;;;;;;1.00;1.00;;;;;;;;5036761;28;8847;-75
2022/07/28 13:56:08;;;;;;;;;1.00;1.00;;;;;;;;5038979;28;8863;-74
2022/07/28 13:58:36;;;;;;;;;1.00;1.00;;;;;;;;5039275;28;8894;-78
2022/07/28 14:01:04;;;;;;;;;1.80;1.00;;;;;;;;5037712;28;8799;-78
2022/07/28 14:03:32;;;;;;;;;1.00;1.00;;;;;;;;5039284;28;8859;-77
2022/07/28 14:06:00;;;;;;;;;0.00;0.00;;;;;;;;5035562;28;8854;-75
2022/07/28 14:08:29;;;;;;;;;1.00;1.00;;;;;;;;5038177;28;8878;-75
2022/07/28 14:10:57;;;;;;;;;1.80;1.80;;;;;;;;5040103;28;8952;-78
2022/07/28 14:13:25;;;;;;;;;1.00;1.00;;;;;;;;5040346;28;8867;-76
2022/07/28 14:15:52;;;;;;;;;1.80;1.80;;;;;;;;5040024;28;8875;-77
2022/07/28 14:18:20;;;;;;;;;2.40;2.00;;;;;;;;5038005;28;8843;-74
2022/07/28 14:20:47;;;;;;;;;1.00;1.00;;;;;;;;5041753;28;8866;-82
2022/07/28 14:23:15;;;;;;;;;2.40;2.00;;;;;;;;5039614;28;8875;-75
2022/07/28 14:25:43;;;;;;;;;2.80;1.00;;;;;;;;5041775;28;8890;-79
2022/07/28 14:28:11;;;;;;;;;5.20;2.20;;;;;;;;5039555;28;8981;-77
2022/07/28 14:30:38;;;;;;;;;1.80;1.80;;;;;;;;5038166;28;8854;-79
2022/07/28 14:33:06;;;;;;;;;2.00;2.00;;;;;;;;5042527;28;9572;-77
2022/07/28 14:35:33;;;;;;;;;3.20;3.20;;;;;;;;5040844;28;9010;-74
2022/07/28 14:38:00;;;;;;;;;1.20;1.00;;;;;;;;5040621;28;8967;-77
2022/07/28 14:40:29;;;;;;;;;1.00;1.00;;;;;;;;5041152;28;8843;-74
2022/07/28 14:42:58;;;;;;;;;1.00;1.00;;;;;;;;5037715;28;8851;-74
2022/07/28 14:45:26;;;;;;;;;0.60;0.60;;;;;;;;5037732;28;8883;-79
2022/07/28 14:47:55;;;;;;;;;1.00;1.00;;;;;;;;5037857;28;8886;-78
2022/07/28 14:50:23;;;;;;;;;2.80;1.00;;;;;;;;5030563;28;8875;-78
2022/07/28 14:52:51;;;;;;;;;4.00;2.20;;;;;;;;5042477;28;8871;-80
2022/07/28 14:55:19;;;;;;;;;0.00;0.00;;;;;;;;5045525;28;8871;-79
2022/07/28 14:57:46;;;;;;;;;2.80;2.80;;;;;;;;5045246;28;8903;-76
2022/07/28 15:00:18;;;;;;;;;1.00;1.00;;;;;;;;5040685;28;8895;-80
2022/07/28 15:02:46;;;;;;;;;1.00;1.00;;;;;;;;5043539;28;8929;-81
2022/07/28 15:05:13;;;;;;;;;1.00;1.00;;;;;;;;5039781;28;8886;-84
2022/07/28 15:07:42;;;;;;;;;1.80;1.80;;;;;;;;5041581;28;8877;-82
2022/07/28 15:10:11;;;;;;;;;1.20;1.20;;;;;;;;5039934;28;8929;-84
2022/07/28 15:12:41;;;;;;;;;1.00;0.00;;;;;;;;5044240;28;8948;-83
2022/07/28 15:15:12;;;;;;;;;2.00;2.00;;;;;;;;5044060;28;8887;-85